Time;durP1;ratioP1;P1;durP2;ratioP2;P2;SDS_P1;SDS_P2;PMS_P1;PMS_P2;Temp;Humidity;BMP_temperature;BMP_pressure;BME280_temperature;BME280_humidity;BME280_pressure;Samples;Min_cycle;Max_cycle;Signal;HPM_P1;HPM_P2
2023/01/27 00:00:51;;;;;;;20.25;8.80;;;;;;;;;;4954992;28;20050;-64
2023/01/27 00:03:17;;;;;;;21.33;9.80;;;;;;;;;;4952187;28;20118;-64
2023/01/27 00:05:43;;;;;;;16.42;9.65;;;;;;;;;;4953435;28;20122;-64
2023/01/27 00:08:09;;;;;;;21.88;10.38;;;;;;;;;;4959249;28;20045;-64
2023/01/27 00:10:35;;;;;;;19.42;11.23;;;;;;;;;;4945330;28;20047;-64
2023/01/27 00:15:46;;;;;;;19.02;11.75;;;;;;;;;;4940741;28;20059;-64
2023/01/27 00:18:12;;;;;;;21.70;11.60;;;;;;;;;;4936969;28;20125;-64
2023/01/27 00:26:11;;;;;;;25.05;13.77;;;;;;;;;;4934940;28;20134;-64
2023/01/27 00:28:38;;;;;;;20.70;12.10;;;;;;;;;;4931480;28;20405;-64
2023/01/27 00:31:05;;;;;;;20.50;12.57;;;;;;;;;;4935241;28;20062;-64
2023/01/27 00:33:31;;;;;;;23.75;14.43;;;;;;;;;;4954124;28;20094;-64
2023/01/27 00:36:02;;;;;;;22.25;13.02;;;;;;;;;;4941738;28;20035;-64
2023/01/27 00:38:29;;;;;;;25.50;13.38;;;;;;;;;;4955897;28;20039;-64
2023/01/27 00:43:40;;;;;;;23.60;13.73;;;;;;;;;;4959371;28;20090;-64
2023/01/27 00:46:06;;;;;;;24.92;12.80;;;;;;;;;;4945780;28;20050;-64
2023/01/27 00:48:33;;;;;;;24.13;14.18;;;;;;;;;;4955294;28;20122;-64
2023/01/27 00:50:59;;;;;;;23.45;12.40;;;;;;;;;;4933401;28;20292;-64
2023/01/27 00:53:25;;;;;;;21.02;12.80;;;;;;;;;;4933078;28;20050;-64
2023/01/27 00:55:51;;;;;;;22.58;13.10;;;;;;;;;;4950971;28;20047;-64
2023/01/27 00:58:17;;;;;;;25.25;12.43;;;;;;;;;;4934432;28;20580;-64
2023/01/27 01:00:43;;;;;;;21.48;12.85;;;;;;;;;;4950944;28;20036;-64
2023/01/27 01:03:09;;;;;;;19.65;12.38;;;;;;;;;;4952508;28;20042;-64
2023/01/27 01:05:35;;;;;;;16.95;9.40;;;;;;;;;;4961086;28;20046;-64
2023/01/27 01:08:01;;;;;;;16.48;9.38;;;;;;;;;;4935033;28;20043;-64
2023/01/27 01:10:27;;;;;;;14.63;9.25;;;;;;;;;;4949194;28;20043;-64
2023/01/27 01:12:53;;;;;;;12.57;9.80;;;;;;;;;;4950024;28;20042;-64
2023/01/27 01:15:19;;;;;;;13.63;8.63;;;;;;;;;;4937152;29;20058;-64
2023/01/27 01:17:45;;;;;;;11.20;7.78;;;;;;;;;;4953192;28;20417;-64
2023/01/27 01:20:11;;;;;;;10.75;8.13;;;;;;;;;;4950395;28;20043;-64
2023/01/27 01:22:37;;;;;;;11.68;8.30;;;;;;;;;;4962365;28;20077;-64
2023/01/27 01:25:04;;;;;;;13.90;7.00;;;;;;;;;;4956246;28;20476;-64
2023/01/27 01:27:30;;;;;;;11.30;7.78;;;;;;;;;;4939201;28;20053;-64
2023/01/27 01:29:56;;;;;;;10.23;7.07;;;;;;;;;;4947685;28;20474;-64
2023/01/27 01:32:22;;;;;;;11.00;7.30;;;;;;;;;;4940333;28;20082;-64
2023/01/27 01:34:47;;;;;;;11.88;7.82;;;;;;;;;;4938357;28;20497;-64
2023/01/27 01:37:13;;;;;;;16.83;7.47;;;;;;;;;;4951190;28;20046;-64
2023/01/27 01:39:39;;;;;;;14.50;7.30;;;;;;;;;;4947358;28;20054;-64
2023/01/27 01:42:05;;;;;;;14.43;7.10;;;;;;;;;;4930511;28;20043;-64
2023/01/27 01:44:32;;;;;;;10.07;7.07;;;;;;;;;;4935867;28;20055;-64
2023/01/27 01:46:58;;;;;;;9.95;6.97;;;;;;;;;;4954776;28;20062;-64
2023/01/27 01:49:36;;;;;;;10.93;6.75;;;;;;;;;;4940496;28;20102;-64
2023/01/27 01:52:06;;;;;;;8.40;6.00;;;;;;;;;;4953695;28;20421;-64
2023/01/27 01:54:34;;;;;;;7.65;5.63;;;;;;;;;;4936954;28;20047;-64
2023/01/27 01:57:09;;;;;;;7.68;6.05;;;4.50;99.90;;;;;;4937568;28;20043;-64
2023/01/27 01:59:35;;;;;;;;;;;;;;;;;;4941241;28;20039;-64
2023/01/27 02:02:06;;;;;;;8.48;5.30;;;;;;;;;;4960039;28;19922;-64
2023/01/27 02:04:36;;;;;;;7.25;4.72;;;;;;;;;;4959896;28;20043;-64
2023/01/27 02:07:05;;;;;;;6.88;4.45;;;;;;;;;;4952121;28;20523;-64
2023/01/27 02:09:32;;;;;;;8.77;4.45;;;;;;;;;;4929513;28;20051;-64
2023/01/27 02:11:58;;;;;;;7.15;4.60;;;;;;;;;;4954188;28;20049;-64
2023/01/27 02:14:24;;;;;;;6.80;4.07;;;;;;;;;;4940697;28;20051;-64
2023/01/27 02:16:50;;;;;;;8.55;4.47;;;;;;;;;;4954511;28;20093;-64
2023/01/27 02:19:22;;;;;;;5.60;4.10;;;;;;;;;;4948497;28;20405;-64
2023/01/27 02:21:49;;;;;;;8.23;4.30;;;;;;;;;;4950533;28;20050;-64
2023/01/27 02:24:15;;;;;;;7.50;4.78;;;;;;;;;;4947815;28;20093;-64
2023/01/27 02:26:42;;;;;;;7.47;3.80;;;;;;;;;;4959299;28;20134;-64
2023/01/27 02:29:09;;;;;;;5.10;3.90;;;;;;;;;;4948379;28;20524;-64
2023/01/27 02:31:35;;;;;;;7.20;4.18;;;;;;;;;;4953461;28;20054;-64
2023/01/27 02:34:15;;;;;;;5.25;3.75;;;4.60;99.90;;;;;;4934758;29;20043;-64
2023/01/27 02:36:44;;;;;;;4.18;3.38;;;;;;;;;;4955974;28;20043;-64
2023/01/27 02:39:13;;;;;;;6.43;3.42;;;;;;;;;;4927515;28;20039;-64
2023/01/27 02:41:40;;;;;;;3.80;3.17;;;;;;;;;;4952748;28;20102;-64
2023/01/27 02:44:06;;;;;;;4.72;3.33;;;;;;;;;;4953720;28;20062;-64
2023/01/27 02:46:32;;;;;;;5.53;3.78;;;4.60;99.90;;;;;;4938353;28;20059;-64
2023/01/27 02:48:58;;;;;;;3.97;3.03;;;;;;;;;;4936779;28;20703;-64
2023/01/27 02:51:24;;;;;;;5.13;3.13;;;;;;;;;;4933377;29;20137;-64
2023/01/27 02:53:50;;;;;;;4.60;3.40;;;;;;;;;;4961606;28;20054;-64
2023/01/27 02:56:16;;;;;;;5.00;2.75;;;;;;;;;;4958275;28;20559;-64
2023/01/27 02:58:42;;;;;;;3.20;2.58;;;4.60;99.90;;;;;;4964060;28;20049;-64
2023/01/27 03:01:08;;;;;;;3.53;2.72;;;;;;;;;;4946766;28;20043;-64
2023/01/27 03:03:34;;;;;;;4.05;2.42;;;;;;;;;;4960060;28;20133;-64
2023/01/27 03:06:00;;;;;;;5.13;3.20;;;;;;;;;;4963823;28;20141;-64
2023/01/27 03:08:26;;;;;;;5.43;2.75;;;;;;;;;;4958014;28;20114;-64
2023/01/27 03:10:53;;;;;;;6.03;2.50;;;4.60;99.90;;;;;;4942433;28;20046;-64
2023/01/27 03:13:23;;;;;;;2.80;2.08;;;;;;;;;;4939674;28;20126;-64
2023/01/27 03:18:34;;;;;;;2.30;1.67;;;;;;;;;;4935486;28;20844;-64
2023/01/27 03:21:01;;;;;;;4.18;2.00;;;;;;;;;;4936794;28;20180;-64
2023/01/27 03:23:27;;;;;;;3.83;1.75;;;;;;;;;;4936565;29;20050;-64
2023/01/27 03:25:53;;;;;;;2.97;2.05;;;;;;;;;;4946049;28;20448;-64
2023/01/27 03:28:19;;;;;;;4.60;2.20;;;;;;;;;;4931955;28;20066;-64
2023/01/27 03:30:45;;;;;;;2.78;2.30;;;;;;;;;;4938399;28;20684;-64
2023/01/27 03:33:11;;;;;;;5.03;2.67;;;;;;;;;;4942637;28;20134;-64
2023/01/27 03:35:38;;;;;;;5.45;2.00;;;;;;;;;;4943737;29;20058;-64
2023/01/27 03:46:21;;;;;;;2.30;1.73;;;;;;;;;;4954047;28;20083;-64
2023/01/27 03:48:48;;;;;;;4.68;2.58;;;;;;;;;;4940262;28;20046;-64
2023/01/27 03:51:14;;;;;;;2.92;1.83;;;;;;;;;;4964478;28;20035;-64
2023/01/27 03:53:40;;;;;;;4.40;2.20;;;;;;;;;;4943614;28;20489;-64
2023/01/27 03:56:06;;;;;;;5.25;2.53;;;;;;;;;;4962299;28;20042;-64
2023/01/27 03:58:36;;;;;;;4.70;2.42;;;;;;;;;;4958714;28;20125;-64
2023/01/27 04:01:07;;;;;;;3.75;2.08;;;;;;;;;;4942491;28;20055;-64
2023/01/27 04:09:09;;;;;;;3.90;1.98;;;;;;;;;;4934683;28;20076;-64
2023/01/27 04:11:54;;;;;;;2.83;2.17;;;;;;;;;;4940982;28;20044;-64
2023/01/27 04:14:20;;;;;;;4.00;1.92;;;;;;;;;;4948895;28;20129;-64
2023/01/27 04:16:46;;;;;;;3.22;2.00;;;;;;;;;;4966011;28;20042;-65
2023/01/27 04:19:13;;;;;;;4.82;2.20;;;;;;;;;;4943957;28;20539;-65
2023/01/27 04:21:39;;;;;;;4.45;2.05;;;;;;;;;;4939307;28;20069;-64
2023/01/27 04:24:15;;;;;;;4.22;1.75;;;;;;;;;;4923952;28;20051;-64
2023/01/27 04:26:42;;;;;;;1.85;1.70;;;;;;;;;;4938300;28;20642;-64
2023/01/27 04:29:09;;;;;;;2.20;1.73;;;;;;;;;;4938289;28;20054;-65
2023/01/27 04:31:35;;;;;;;3.85;2.08;;;;;;;;;;4956028;28;20034;-64
2023/01/27 04:34:00;;;;;;;2.80;1.83;;;;;;;;;;4937726;28;20058;-64
2023/01/27 04:36:26;;;;;;;8.38;2.20;;;;;;;;;;4960090;28;20039;-64
2023/01/27 04:38:52;;;;;;;5.25;2.17;;;;;;;;;;4937307;28;20078;-64
2023/01/27 04:41:18;;;;;;;4.30;1.90;;;;;;;;;;4960357;28;20043;-64
2023/01/27 04:43:44;;;;;;;4.75;2.00;;;;;;;;;;4963149;28;20092;-64
2023/01/27 04:46:10;;;;;;;2.42;1.77;;;;;;;;;;4961960;28;20042;-64
2023/01/27 04:48:36;;;;;;;4.82;1.80;;;;;;;;;;4933623;28;20587;-65
2023/01/27 04:51:02;;;;;;;4.22;1.67;;;;;;;;;;4948244;28;20055;-64
2023/01/27 04:53:28;;;;;;;2.65;1.48;;;;;;;;;;4949359;28;20039;-64
2023/01/27 04:56:00;;;;;;;3.80;1.55;;;;;;;;;;4968261;28;20039;-64
2023/01/27 04:58:26;;;;;;;2.70;1.60;;;;;;;;;;4953535;28;20082;-64
2023/01/27 05:00:52;;;;;;;5.60;1.67;;;;;;;;;;4940262;28;20082;-64
2023/01/27 05:03:18;;;;;;;4.55;1.67;;;;;;;;;;4969314;28;20050;-68
2023/01/27 05:05:44;;;;;;;2.00;1.55;;;;;;;;;;4936107;28;20811;-66
2023/01/27 05:08:10;;;;;;;5.20;1.77;;;;;;;;;;4948263;28;20110;-65
2023/01/27 05:10:36;;;;;;;4.30;1.60;;;;;;;;;;4951819;28;20053;-65
2023/01/27 05:13:03;;;;;;;4.75;1.83;;;;;;;;;;4941231;28;20097;-64
2023/01/27 05:15:29;;;;;;;3.70;1.98;;;;;;;;;;4960421;28;20049;-64
2023/01/27 05:17:56;;;;;;;3.42;1.70;;;;;;;;;;4936342;28;20493;-64
2023/01/27 05:20:21;;;;;;;5.13;1.70;;;;;;;;;;4929773;28;20125;-65
2023/01/27 05:22:48;;;;;;;2.38;2.17;;;;;;;;;;4938790;28;20157;-64
2023/01/27 05:25:14;;;;;;;2.92;2.08;;;;;;;;;;4957917;28;20136;-65
2023/01/27 05:27:39;;;;;;;3.55;2.60;;;;;;;;;;4957322;28;20516;-64
2023/01/27 05:30:06;;;;;;;3.53;2.08;;;;;;;;;;4949335;28;20089;-64
2023/01/27 05:32:32;;;;;;;3.00;2.20;;;;;;;;;;4931743;28;20109;-64
2023/01/27 05:34:58;;;;;;;4.25;2.72;;;;;;;;;;4945795;28;20092;-64
2023/01/27 05:37:24;;;;;;;4.90;3.30;;;;;;;;;;4935164;28;20390;-65
2023/01/27 05:39:50;;;;;;;4.07;2.70;;;;;;;;;;4954121;28;20042;-65
2023/01/27 05:42:16;;;;;;;4.78;2.42;;;;;;;;;;4946800;28;20047;-65
2023/01/27 05:44:42;;;;;;;3.92;2.42;;;;;;;;;;4941524;28;20062;-66
2023/01/27 05:47:08;;;;;;;5.93;2.90;;;;;;;;;;4943315;28;20203;-64
2023/01/27 05:49:34;;;;;;;5.75;3.45;;;4.10;99.90;;;;;;4934542;28;20058;-64
2023/01/27 05:52:00;;;;;;;5.78;3.22;;;;;;;;;;4950771;28;20043;-64
2023/01/27 05:54:26;;;;;;;6.38;3.17;;;;;;;;;;4963146;28;20492;-66
2023/01/27 05:56:52;;;;;;;4.35;2.70;;;;;;;;;;4935881;28;20046;-65
2023/01/27 05:59:18;;;;;;;4.18;2.85;;;;;;;;;;4934510;28;20050;-65
2023/01/27 06:01:44;;;;;;;3.78;2.00;;;;;;;;;;4957837;28;20054;-64
2023/01/27 06:04:10;;;;;;;3.63;2.92;;;;;;;;;;4947166;28;20047;-62
2023/01/27 06:06:36;;;;;;;3.80;2.85;;;;;;;;;;4958923;28;20046;-62
2023/01/27 06:09:02;;;;;;;4.65;2.88;;;;;;;;;;4966408;28;20081;-62
2023/01/27 06:11:28;;;;;;;8.15;3.05;;;;;;;;;;4939292;28;20383;-63
2023/01/27 06:13:54;;;;;;;7.13;2.45;;;;;;;;;;4937010;28;20080;-63
2023/01/27 06:16:21;;;;;;;4.82;3.38;;;4.30;99.90;;;;;;4954736;28;20126;-64
2023/01/27 06:18:48;;;;;;;4.55;2.45;;;;;;;;;;4957089;28;20035;-63
2023/01/27 06:21:14;;;;;;;3.70;2.55;;;;;;;;;;4938069;28;20085;-63
2023/01/27 06:23:40;;;;;;;3.33;2.65;;;;;;;;;;4953711;28;20130;-64
2023/01/27 06:26:08;;;;;;;3.63;2.90;;;;;;;;;;4952421;28;20051;-62
2023/01/27 06:28:34;;;;;;;4.57;3.08;;;;;;;;;;4932635;28;20050;-64
2023/01/27 06:31:08;;;;;;;3.63;2.67;;;4.30;99.90;;;;;;4948495;28;20049;-64
2023/01/27 06:33:35;;;;;;;3.20;2.83;;;;;;;;;;4947517;28;20051;-64
2023/01/27 06:36:03;;;;;;;6.90;3.53;;;4.00;99.90;;;;;;4954200;28;20051;-65
2023/01/27 06:38:29;;;;;;;5.65;2.80;;;;;;;;;;4945967;28;20057;-65
2023/01/27 06:40:55;;;;;;;4.07;3.25;;;;;;;;;;4929709;28;20043;-64
2023/01/27 06:43:21;;;;;;;3.53;2.83;;;;;;;;;;4941912;28;20121;-63
2023/01/27 06:45:51;;;;;;;7.57;2.50;;;;;;;;;;4966338;28;20412;-64
2023/01/27 06:48:16;;;;;;;4.90;2.55;;;;;;;;;;4932362;28;20101;-64
2023/01/27 06:50:42;;;;;;;6.68;2.60;;;;;;;;;;4951388;28;20770;-65
2023/01/27 06:53:09;;;;;;;4.75;3.00;;;;;;;;;;4952012;28;20096;-63
2023/01/27 06:55:40;;;;;;;5.93;2.42;;;;;;;;;;4950251;28;20142;-63
2023/01/27 06:58:07;;;;;;;3.25;2.58;;;;;;;;;;4952368;28;20214;-64
2023/01/27 07:00:33;;;;;;;4.30;2.30;;;;;;;;;;4968472;28;20067;-64
2023/01/27 07:02:59;;;;;;;3.72;2.10;;;;;;;;;;4948223;28;20042;-64
2023/01/27 07:05:25;;;;;;;5.53;2.25;;;;;;;;;;4964161;28;20054;-65
2023/01/27 07:07:51;;;;;;;2.90;2.00;;;;;;;;;;4960989;28;20584;-65
2023/01/27 07:10:17;;;;;;;3.78;2.85;;;;;;;;;;4960868;28;20466;-63
2023/01/27 07:12:53;;;;;;;4.90;2.75;;;;;;;;;;4950857;28;20082;-63
2023/01/27 07:15:18;;;;;;;6.32;2.83;;;;;;;;;;4953130;28;20556;-64
2023/01/27 07:17:44;;;;;;;8.60;2.30;;;;;;;;;;4952696;28;20043;-64
2023/01/27 07:20:12;;;;;;;7.95;2.65;;;;;;;;;;4929260;29;20469;-66
2023/01/27 07:22:38;;;;;;;4.97;2.25;;;4.00;99.90;;;;;;4931470;28;20126;-64
2023/01/27 07:25:05;;;;;;;4.22;2.13;;;;;;;;;;4934152;28;20126;-65
2023/01/27 07:27:31;;;;;;;5.93;2.40;;;;;;;;;;4935124;28;20059;-64
2023/01/27 07:29:57;;;;;;;4.65;1.88;;;;;;;;;;4951141;28;20046;-65
2023/01/27 07:32:23;;;;;;;4.88;2.53;;;;;;;;;;4938385;28;20043;-64
2023/01/27 07:34:49;;;;;;;3.90;2.20;;;;;;;;;;4931976;28;20084;-66
2023/01/27 07:37:15;;;;;;;3.78;1.90;;;;;;;;;;4936455;28;20038;-65
2023/01/27 07:39:41;;;;;;;3.10;2.22;;;;;;;;;;4950225;28;20126;-65
2023/01/27 07:42:09;;;;;;;3.40;2.30;;;;;;;;;;4952885;28;20068;-66
2023/01/27 07:44:35;;;;;;;6.03;1.73;;;;;;;;;;4952523;28;20058;-66
2023/01/27 07:47:01;;;;;;;5.78;2.25;;;;;;;;;;4933334;29;20051;-66
2023/01/27 07:49:27;;;;;;;2.78;2.10;;;;;;;;;;4946701;28;20055;-65
2023/01/27 07:51:53;;;;;;;3.15;1.50;;;;;;;;;;4959321;28;20121;-64
2023/01/27 07:54:19;;;;;;;4.57;1.77;;;;;;;;;;4949085;28;20424;-70
2023/01/27 07:56:45;;;;;;;3.67;1.63;;;;;;;;;;4947331;28;20039;-70
2023/01/27 07:59:11;;;;;;;5.10;1.73;;;;;;;;;;4956354;28;20042;-67
2023/01/27 08:01:37;;;;;;;3.88;1.77;;;;;;;;;;4953224;28;20039;-65
2023/01/27 08:04:03;;;;;;;2.38;1.65;;;;;;;;;;4967817;28;20046;-66
2023/01/27 08:06:29;;;;;;;3.40;1.42;;;;;;;;;;4946445;28;20066;-65
2023/01/27 08:08:55;;;;;;;1.90;1.55;;;;;;;;;;4967049;28;20035;-64
2023/01/27 08:11:21;;;;;;;1.88;1.33;;;;;;;;;;4942680;28;20057;-68
2023/01/27 08:13:47;;;;;;;2.72;2.00;;;;;;;;;;4943107;28;20043;-64
2023/01/27 08:16:13;;;;;;;9.40;2.55;;;3.90;99.90;;;;;;4941613;28;20051;-64
2023/01/27 08:18:40;;;;;;;4.53;1.80;;;;;;;;;;4958086;28;20039;-65
2023/01/27 08:21:07;;;;;;;4.20;2.00;;;;;;;;;;4936918;28;20051;-64
2023/01/27 08:23:33;;;;;;;4.47;2.00;;;;;;;;;;4939380;28;20051;-67
2023/01/27 08:26:00;;;;;;;5.53;1.75;;;;;;;;;;4946712;28;20082;-67
2023/01/27 08:28:27;;;;;;;4.13;2.13;;;;;;;;;;4932576;28;20047;-68
2023/01/27 08:30:53;;;;;;;5.95;1.63;;;;;;;;;;4953293;28;20054;-65
2023/01/27 08:33:20;;;;;;;6.07;1.60;;;;;;;;;;4956500;28;20396;-65
2023/01/27 08:35:46;;;;;;;5.38;2.83;;;;;;;;;;4936854;29;20090;-66
2023/01/27 08:38:13;;;;;;;6.22;1.80;;;;;;;;;;4951574;28;20035;-67
2023/01/27 08:40:40;;;;;;;3.80;2.10;;;;;;;;;;4939645;29;20043;-68
2023/01/27 08:43:06;;;;;;;3.22;1.80;;;;;;;;;;4939411;28;20054;-67
2023/01/27 08:45:32;;;;;;;5.13;1.80;;;;;;;;;;4938649;29;20047;-67
2023/01/27 08:47:58;;;;;;;3.97;1.55;;;;;;;;;;4941714;28;20233;-69
2023/01/27 08:50:25;;;;;;;5.88;2.47;;;;;;;;;;4964907;28;20080;-64
2023/01/27 08:52:51;;;;;;;3.97;1.98;;;;;;;;;;4961343;28;20122;-66
2023/01/27 08:55:17;;;;;;;6.78;1.95;;;;;;;;;;4929323;28;20051;-68
2023/01/27 08:57:43;;;;;;;7.78;2.30;;;;;;;;;;4927708;28;20049;-68
2023/01/27 09:00:13;;;;;;;4.90;2.28;;;;;;;;;;4932785;28;20382;-68
2023/01/27 09:02:39;;;;;;;2.63;2.00;;;;;;;;;;4950673;28;20493;-66
2023/01/27 09:05:06;;;;;;;3.33;2.05;;;;;;;;;;4936786;28;20062;-64
2023/01/27 09:07:33;;;;;;;5.22;2.03;;;;;;;;;;4936877;28;20050;-65
2023/01/27 09:09:58;;;;;;;3.92;2.20;;;;;;;;;;4940761;28;20137;-66
2023/01/27 09:12:24;;;;;;;3.33;1.95;;;;;;;;;;4960782;28;20082;-66
2023/01/27 09:14:50;;;;;;;6.15;2.47;;;;;;;;;;4972390;28;20050;-65
2023/01/27 09:17:18;;;;;;;5.75;2.22;;;;;;;;;;4937778;28;20618;-65
2023/01/27 09:19:44;;;;;;;4.95;2.60;;;;;;;;;;4938685;28;20050;-65
2023/01/27 09:22:10;;;;;;;9.38;2.88;;;;;;;;;;4948897;28;20097;-65
2023/01/27 09:24:36;;;;;;;7.90;3.08;;;;;;;;;;4944726;28;20050;-64
2023/01/27 09:27:02;;;;;;;4.95;2.17;;;;;;;;;;4954459;28;20564;-64
2023/01/27 09:29:29;;;;;;;5.10;2.50;;;;;;;;;;4933654;28;20047;-64
2023/01/27 09:31:55;;;;;;;5.15;2.88;;;;;;;;;;4956199;28;20129;-64
2023/01/27 09:34:21;;;;;;;4.03;2.95;;;;;;;;;;4943491;28;20038;-65
2023/01/27 09:36:51;;;;;;;11.13;2.47;;;;;;;;;;4960438;28;20527;-65
2023/01/27 09:39:18;;;;;;;4.20;2.50;;;;;;;;;;4959669;28;20464;-65
2023/01/27 09:42:12;;;;;;;8.10;3.08;;;;;;;;;;4954707;28;20106;-65
2023/01/27 09:44:55;;;;;;;9.45;3.13;;;;;;;;;;4960307;28;20444;-65
2023/01/27 09:47:22;;;;;;;6.25;2.75;;;;;;;;;;4945103;28;20422;-65
2023/01/27 09:50:07;;;;;;;5.80;3.00;;;;;;;;;;4940151;28;20062;-65
2023/01/27 09:52:42;;;;;;;3.50;2.47;;;;;;;;;;4940355;28;20550;-65
2023/01/27 09:55:11;;;;;;;6.82;2.95;;;;;;;;;;4939540;28;20102;-65
2023/01/27 09:57:44;;;;;;;5.40;3.08;;;;;;;;;;4939777;28;20139;-65
2023/01/27 10:00:16;;;;;;;5.75;2.97;;;;;;;;;;4956153;28;20038;-65
2023/01/27 10:03:01;;;;;;;6.57;2.95;;;;;;;;;;4960425;28;20378;-65
2023/01/27 10:05:40;;;;;;;5.30;2.65;;;;;;;;;;4947363;28;20489;-65
2023/01/27 10:08:12;;;;;;;8.80;2.55;;;;;;;;;;4936960;28;20054;-69
2023/01/27 10:10:57;;;;;;;3.33;2.78;;;;;;;;;;4936204;28;20104;-67
2023/01/27 10:13:44;;;;;;;5.43;2.90;;;;;;;;;;4941802;28;20054;-67
2023/01/27 10:16:24;;;;;;;5.45;2.90;;;;;;;;;;4955572;28;20047;-66
2023/01/27 10:19:19;;;;;;;5.15;2.40;;;5.00;99.90;;;;;;4958467;28;20374;-67
2023/01/27 10:22:14;;;;;;;5.07;2.40;;;5.20;99.90;;;;;;4956996;28;20074;-64
2023/01/27 10:24:49;;;;;;;3.65;2.45;;;;;;;;;;4938887;28;20046;-65
2023/01/27 10:27:21;;;;;;;3.65;3.05;;;;;;;;;;4937540;28;20039;-65
2023/01/27 10:29:57;;;;;;;4.20;2.60;;;;;;;;;;4937519;28;20052;-65
2023/01/27 10:32:23;;;;;;;2.78;2.40;;;;;;;;;;4938315;28;20135;-64
2023/01/27 10:34:52;;;;;;;2.30;2.00;;;;;;;;;;4940494;28;20047;-65
2023/01/27 10:37:24;;;;;;;4.75;2.15;;;;;;;;;;4960233;28;20046;-67
2023/01/27 10:39:53;;;;;;;7.07;2.50;;;;;;;;;;4934041;28;20054;-66
2023/01/27 10:42:25;;;;;;;2.63;2.10;;;;;;;;;;4929832;28;20457;-66
2023/01/27 10:44:51;;;;;;;8.65;2.60;;;;;;;;;;4949817;28;20138;-67
2023/01/27 10:47:20;;;;;;;3.42;1.92;;;;;;;;;;4946215;28;20186;-68
2023/01/27 10:49:50;;;;;;;4.50;2.00;;;;;;;;;;4955401;28;20057;-68
2023/01/27 10:52:20;;;;;;;2.47;1.70;;;;;;;;;;4960335;28;20065;-68
2023/01/27 10:54:49;;;;;;;5.75;2.00;;;;;;;;;;4946217;28;20694;-68
2023/01/27 10:57:26;;;;;;;4.30;2.10;;;5.10;99.90;;;;;;4946515;28;20137;-67
2023/01/27 11:00:04;;;;;;;2.85;1.77;;;;;;;;;;4934495;28;20505;-66
2023/01/27 11:02:37;;;;;;;3.20;1.50;;;;;;;;;;4935341;28;20034;-66
2023/01/27 11:05:08;;;;;;;2.20;1.80;;;;;;;;;;4932836;28;20051;-66
2023/01/27 11:07:37;;;;;;;3.03;2.05;;;;;;;;;;4962022;28;20071;-71
2023/01/27 11:10:07;;;;;;;2.75;1.77;;;;;;;;;;4966851;28;20070;-71
2023/01/27 11:12:43;;;;;;;3.33;1.83;;;5.20;99.90;;;;;;4959369;28;20085;-69
2023/01/27 11:15:23;;;;;;;4.35;2.00;;;;;;;;;;4946551;28;20051;-70
2023/01/27 11:18:01;;;;;;;4.40;2.10;;;;;;;;;;4961157;28;20070;-70
2023/01/27 11:20:29;;;;;;;2.58;1.65;;;;;;;;;;4961093;28;20046;-71
2023/01/27 11:26:25;;;;;;;4.57;1.90;;;;;;;;;;4955827;28;20050;-70
2023/01/27 11:28:55;;;;;;;2.58;1.65;;;;;;;;;;4943348;28;20043;-71
2023/01/27 11:31:21;;;;;;;2.10;1.73;;;;;;;;;;4948021;28;20083;-70
2023/01/27 11:33:56;;;;;;;3.80;1.65;;;;;;;;;;4965097;28;20061;-70
2023/01/27 11:36:22;;;;;;;1.40;1.30;;;;;;;;;;4964374;28;20377;-70
2023/01/27 11:38:48;;;;;;;1.48;1.38;;;;;;;;;;4940311;28;20809;-69
2023/01/27 11:41:14;;;;;;;1.98;1.10;;;;;;;;;;4949964;28;20042;-70
2023/01/27 11:43:40;;;;;;;1.75;1.42;;;;;;;;;;4967375;28;20457;-68
2023/01/27 11:46:11;;;;;;;1.42;1.17;;;;;;;;;;4947203;28;20661;-66
2023/01/27 11:48:44;;;;;;;1.50;1.40;;;;;;;;;;4945720;28;20046;-66
2023/01/27 11:51:16;;;;;;;1.40;1.30;;;4.80;99.90;;;;;;4928603;28;20090;-66
2023/01/27 11:53:42;;;;;;;3.22;1.88;;;;;;;;;;4937847;28;20864;-65
2023/01/27 11:56:12;;;;;;;1.73;1.63;;;;;;;;;;4938486;28;20039;-68
2023/01/27 11:58:57;;;;;;;1.70;1.45;;;;;;;;;;4941540;28;20055;-65
2023/01/27 12:01:34;;;;;;;2.97;2.10;;;;;;;;;;4961941;28;20042;-65
2023/01/27 12:04:06;;;;;;;1.67;1.27;;;;;;;;;;4937557;28;20372;-65
2023/01/27 12:06:48;;;;;;;1.42;1.10;;;;;;;;;;4959339;28;20046;-65
2023/01/27 12:09:33;;;;;;;1.70;1.60;;;;;;;;;;4936805;29;20122;-64
2023/01/27 12:12:19;;;;;;;1.98;1.80;;;;;;;;;;4958070;28;20742;-63
2023/01/27 12:14:49;;;;;;;2.25;2.05;;;;;;;;;;4946080;28;20559;-64
2023/01/27 12:17:21;;;;;;;2.78;2.40;;;;;;;;;;4937704;28;20122;-64
2023/01/27 12:19:47;;;;;;;2.60;2.40;;;;;;;;;;4932900;28;20058;-64
2023/01/27 12:22:18;;;;;;;3.13;2.83;;;;;;;;;;4955689;28;20497;-63
2023/01/27 12:24:49;;;;;;;2.75;2.50;;;;;;;;;;4958501;28;20834;-64
2023/01/27 12:27:23;;;;;;;2.20;2.00;;;;;;;;;;4939276;28;20126;-63
2023/01/27 12:30:00;;;;;;;2.75;1.92;;;;;;;;;;4957531;28;20066;-64
2023/01/27 12:32:33;;;;;;;2.75;2.55;;;;;;;;;;4943023;28;20042;-64
2023/01/27 12:35:01;;;;;;;3.50;2.13;;;;;;;;;;4960890;28;20046;-63
2023/01/27 12:37:31;;;;;;;4.00;2.10;;;;;;;;;;4968841;28;20042;-64
2023/01/27 12:40:01;;;;;;;2.67;2.10;;;4.40;99.90;;;;;;4972600;28;20035;-64
2023/01/27 12:42:38;;;;;;;2.42;2.10;;;;;;;;;;4959559;28;20034;-64
2023/01/27 12:45:21;;;;;;;2.38;2.17;;;;;;;;;;4952269;28;20066;-63
2023/01/27 12:47:59;;;;;;;2.50;1.92;;;;;;;;;;4961500;28;20413;-64
2023/01/27 12:50:27;;;;;;;3.78;2.40;;;;;;;;;;4948893;28;20157;-64
2023/01/27 12:53:13;;;;;;;2.72;2.17;;;;;;;;;;4928042;28;20053;-64
2023/01/27 12:55:41;;;;;;;4.57;2.40;;;;;;;;;;4951008;28;20039;-63
2023/01/27 12:58:27;;;;;;;2.20;2.00;;;;;;;;;;4948880;28;20098;-64
2023/01/27 13:00:53;;;;;;;2.45;2.25;;;;;;;;;;4946772;28;20046;-64
2023/01/27 13:03:20;;;;;;;2.78;2.55;;;;;;;;;;4943471;28;20047;-64
2023/01/27 13:05:46;;;;;;;2.30;2.10;;;;;;;;;;4944778;28;20078;-63
2023/01/27 13:08:15;;;;;;;2.63;2.40;;;;;;;;;;4951646;28;20084;-64
2023/01/27 13:10:48;;;;;;;2.58;2.28;;;;;;;;;;4968850;28;20042;-64
2023/01/27 13:13:18;;;;;;;2.97;2.63;;;;;;;;;;4953923;28;20120;-64
2023/01/27 13:15:53;;;;;;;2.33;2.10;;;4.70;99.90;;;;;;4962243;28;20086;-64
2023/01/27 13:18:23;;;;;;;2.70;2.50;;;;;;;;;;4933895;28;20094;-63
2023/01/27 13:21:08;;;;;;;6.78;2.70;;;;;;;;;;4956422;28;20046;-64
2023/01/27 13:23:37;;;;;;;2.90;2.60;;;;;;;;;;4960816;28;20933;-64
2023/01/27 13:26:10;;;;;;;4.78;3.00;;;;;;;;;;4945592;28;20826;-63
2023/01/27 13:29:13;;;;;;;2.75;2.55;;;4.50;99.90;;;;;;4949153;28;20043;-64
2023/01/27 13:31:49;;;;;;;2.80;2.60;;;;;;;;;;4952375;28;20042;-64
2023/01/27 13:34:32;;;;;;;4.75;2.40;;;;;;;;;;4941515;28;20051;-64
2023/01/27 13:37:01;;;;;;;2.53;2.33;;;;;;;;;;4937392;28;20047;-64
2023/01/27 13:39:47;;;;;;;2.30;2.10;;;;;;;;;;4948859;28;20046;-63
2023/01/27 13:42:39;;;;;;;3.17;2.85;;;;;;;;;;4951110;28;20051;-64
2023/01/27 13:45:11;;;;;;;2.80;2.25;;;;;;;;;;4929471;29;20336;-64
2023/01/27 13:47:50;;;;;;;3.30;2.75;;;;;;;;;;4941918;28;20092;-64
2023/01/27 13:50:22;;;;;;;3.22;2.92;;;;;;;;;;4954539;28;20646;-64
2023/01/27 13:52:51;;;;;;;3.17;2.90;;;;;;;;;;4954877;28;20043;-64
2023/01/27 13:55:20;;;;;;;4.95;2.83;;;;;;;;;;4939669;28;20117;-64
2023/01/27 13:58:04;;;;;;;2.92;2.63;;;;;;;;;;4954714;28;20031;-64
2023/01/27 14:00:35;;;;;;;5.38;3.28;;;;;;;;;;4960381;28;20066;-64
2023/01/27 14:03:20;;;;;;;3.40;3.03;;;;;;;;;;4941280;28;20081;-64
2023/01/27 14:05:52;;;;;;;3.65;2.80;;;;;;;;;;4941906;28;20133;-63
2023/01/27 14:08:21;;;;;;;3.88;2.90;;;;;;;;;;4934387;28;20572;-64
2023/01/27 14:10:57;;;;;;;3.15;2.72;;;;;;;;;;4931214;29;20070;-64
2023/01/27 14:13:42;;;;;;;3.13;2.83;;;;;;;;;;4959566;28;20412;-64
2023/01/27 14:16:27;;;;;;;3.25;2.97;;;;;;;;;;4952762;28;20540;-64
2023/01/27 14:19:19;;;;;;;2.40;2.20;;;;;;;;;;4929978;28;20115;-64
2023/01/27 14:21:53;;;;;;;3.17;2.55;;;;;;;;;;4933395;28;20047;-64
2023/01/27 14:24:22;;;;;;;3.22;2.80;;;;;;;;;;4950764;28;20043;-64
2023/01/27 14:26:51;;;;;;;3.00;2.60;;;;;;;;;;4941218;28;20059;-64
2023/01/27 14:29:25;;;;;;;2.72;2.45;;;;;;;;;;4960493;28;20038;-64
2023/01/27 14:32:10;;;;;;;3.75;2.58;;;;;;;;;;4937680;28;20042;-64
2023/01/27 14:34:54;;;;;;;3.80;3.40;;;;;;;;;;4956326;28;20053;-64
2023/01/27 14:37:32;;;;;;;2.55;2.35;;;;;;;;;;4954970;28;20370;-64
2023/01/27 14:40:20;;;;;;;3.95;3.10;;;;;;;;;;4927319;28;20047;-64
2023/01/27 14:43:00;;;;;;;3.80;2.90;;;;;;;;;;4933822;29;20039;-64
2023/01/27 14:45:31;;;;;;;3.78;3.00;;;;;;;;;;4956573;28;20051;-64
2023/01/27 14:48:23;;;;;;;4.10;2.83;;;;;;;;;;4939731;28;20058;-64
2023/01/27 14:50:53;;;;;;;3.67;3.35;;;;;;;;;;4921114;28;20509;-64
2023/01/27 14:53:28;;;;;;;3.35;3.05;;;;;;;;;;4946140;28;20500;-64
2023/01/27 14:56:11;;;;;;;3.72;3.22;;;;;;;;;;4940833;28;20079;-64
2023/01/27 14:58:56;;;;;;;4.05;3.40;;;;;;;;;;4937249;28;20082;-64
2023/01/27 15:01:27;;;;;;;4.43;3.97;;;;;;;;;;4956770;28;20070;-64
2023/01/27 15:03:53;;;;;;;5.05;4.10;;;;;;;;;;4941975;29;20086;-63
2023/01/27 15:06:38;;;;;;;5.70;4.85;;;;;;;;;;4949404;28;20085;-64
2023/01/27 15:09:03;;;;;;;4.65;4.07;;;;;;;;;;4952698;28;20058;-64
2023/01/27 15:11:35;;;;;;;4.93;4.40;;;;;;;;;;4948701;28;20042;-64
2023/01/27 15:14:20;;;;;;;3.67;3.10;;;;;;;;;;4953068;28;20399;-64
2023/01/27 15:16:50;;;;;;;4.32;3.85;;;;;;;;;;4942788;28;20245;-64
2023/01/27 15:19:24;;;;;;;4.47;4.07;;;;;;;;;;4935670;28;20050;-64
2023/01/27 15:21:50;;;;;;;5.00;4.15;;;;;;;;;;4963483;28;20042;-64